Latest Weather Observations for PORTABLE RFSNSW54

IDN60801

Issued at 12:32 pm EDT Thursday 21 November 2019 (issued every 10 minutes, with the page automatically refreshed every 10 minutes)

About weather observations | Map of weather stations | Latest weather observations for NSW | Other Formats
Station Details ID: 250097 Name: PORTABLE RFSNSW54 Lat: -29.15 Lon: 153.02 Height: 53.0 m

Portable automatic weather stations (PAWS) are operated by other organisations, such as Fire and Emergency Services, and are included here by agreement. Portable stations may be deployed to a location for a short period and their location may be subject to change without notice. Wind observations from these stations are provided from heights of either three (3) or ten (10) metres above ground level (AGL).

Data from the previous 72 hours. | See also: Recent months for locations in New South Wales
Date/Time
EDT
Temp
°C
App
Temp
°C
Dew
Point
°C
Rel
Hum
%
Delta-T
°C
Wind Press
QNH
hPa
Press
MSL
hPa
Rain since
9am
mm
Dir  Spd
km/h
Gust
km/h
Spd
kts
Gust
kts
21/12:20pm 32.8 31.8 13.3 30 11.8 NE 11 15 6 8 - - 0.0
21/12:10pm 31.9 30.4 14.3 34 10.7 NE 15 22 8 12 - - 0.0
21/12:00pm 32.2 31.4 14.1 33 11.0 NNE 11 19 6 10 - - 0.0
21/11:50am 32.2 31.5 14.3 33 10.9 NNE 11 19 6 10 - - 0.0
21/11:40am 31.8 31.1 14.4 34 10.6 NNE 11 19 6 10 - - 0.0
21/11:30am 30.9 30.6 15.4 39 9.6 WSW 11 15 6 8 - - 0.0
21/11:20am 30.9 30.6 15.5 39 9.5 N 11 19 6 10 - - 0.0
21/11:10am 30.6 30.2 15.1 39 9.5 N 11 19 6 10 - - 0.0
21/11:00am 30.3 30.3 16.3 42 8.8 NNE 11 19 6 10 - - 0.0
21/10:50am 30.2 29.3 15.8 41 8.9 ENE 15 19 8 10 - - 0.0
21/10:40am 30.1 30.1 16.2 43 8.7 NNE 11 15 6 8 - - 0.0
21/10:30am - - 16.4 - - N 11 15 6 8 - - 0.0
21/10:20am - - 16.4 - - NNE 11 15 6 8 - - 0.0
21/10:10am - - 16.4 - - NNE 11 15 6 8 - - 0.0
21/10:00am - - 16.8 - - NNE 11 11 6 6 - - 0.0
21/09:50am - - 17.6 - - NNE 11 15 6 8 - - 0.0
21/09:40am - - 17.9 - - N 7 11 4 6 - - 0.0
21/09:30am - - 17.8 - - NE 11 15 6 8 - - 0.0
21/09:20am - - 17.7 - - NNE 11 15 6 8 - - 0.0
21/09:10am - - 18.0 - - NNW 11 15 6 8 - - 0.0
21/09:00am - - 18.1 - - NNE 7 11 4 6 - - 0.0
21/08:50am - - 18.2 - - NE 11 15 6 8 - - 0.0
21/08:40am - - 18.3 - - NE 11 19 6 10 - - 0.0
21/08:30am - - 18.4 - - NNE 11 15 6 8 - - 0.0
21/08:20am - - 18.5 - - N 11 15 6 8 - - 0.0
21/08:10am - - 18.7 - - ENE 11 15 6 8 - - 0.0
21/08:00am - - 18.7 - - NE 7 11 4 6 - - 0.0
21/07:50am - - 18.7 - - NE 11 15 6 8 - - 0.0
21/07:40am - - 18.8 - - N 7 11 4 6 - - 0.0
21/07:30am - - 19.1 - - NE 7 11 4 6 - - 0.0
21/07:20am - - 19.3 - - NNE 7 7 4 4 - - 0.0
21/07:10am - - 19.4 - - NNE 7 11 4 6 - - 0.0
21/07:00am - - 19.6 - - NE 4 7 2 4 - - 0.0
21/06:50am - - 19.6 - - ENE 4 7 2 4 - - 0.0
21/06:40am - - 19.6 - - NNE 4 4 2 2 - - 0.0
21/06:30am - - 19.4 - - CALM 0 0 0 0 - - 0.0
21/06:20am - - 19.2 - - CALM 0 4 0 2 - - 0.0
21/06:10am - - 19.0 - - CALM 0 4 0 2 - - 0.0
21/06:00am - - 19.0 - - CALM 0 0 0 0 - - 0.0
21/05:50am - - 19.0 - - CALM 0 0 0 0 - - 0.0
21/05:40am - - 19.1 - - CALM 0 4 0 2 - - 0.0
21/05:30am - - 19.1 - - CALM 0 4 0 2 - - 0.0
21/05:20am - - 19.2 - - CALM 0 4 0 2 - - 0.0
21/05:10am - - 19.4 - - CALM 0 4 0 2 - - 0.0
21/05:00am - - 19.5 - - CALM 0 0 0 0 - - 0.0
21/04:30am 21.6 25.1 19.6 88 1.3 CALM 0 4 0 2 - - 0.0
21/04:20am 21.7 25.3 19.8 89 1.2 CALM 0 4 0 2 - - 0.0
21/04:00am 21.9 25.5 19.8 88 1.3 CALM 0 4 0 2 - - 0.0
21/03:50am 21.9 25.5 19.7 87 1.4 CALM 0 0 0 0 - - 0.0
21/03:40am 22.0 25.6 19.7 87 1.5 CALM 0 0 0 0 - - 0.0
21/03:30am 22.1 25.8 19.9 87 1.4 CALM 0 4 0 2 - - 0.0
21/03:20am 22.2 25.9 19.9 87 1.5 CALM 0 4 0 2 - - 0.0
21/03:10am 22.3 25.2 19.9 86 1.5 NNE 4 4 2 2 - - 0.0
21/03:00am 22.3 25.9 19.8 86 1.6 CALM 0 4 0 2 - - 0.0
21/02:50am 22.4 25.3 19.9 86 1.6 E 4 4 2 2 - - 0.0
21/02:40am 22.4 25.3 19.8 85 1.7 SSE 4 7 2 4 - - 0.0
21/02:30am 22.4 25.2 19.7 85 1.7 SE 4 4 2 2 - - 0.0
21/02:20am 22.4 26.0 19.8 85 1.7 CALM 0 4 0 2 - - 0.0
21/02:10am 22.5 25.3 19.7 84 1.8 SE 4 4 2 2 - - 0.0
21/02:00am 22.6 26.2 19.7 84 1.9 CALM 0 4 0 2 - - 0.0
21/01:50am 22.6 25.4 19.7 84 1.9 S 4 7 2 4 - - 0.0
21/01:40am 22.6 25.4 19.7 84 1.9 S 4 7 2 4 - - 0.0
21/01:30am 22.7 25.5 19.7 83 1.9 S 4 7 2 4 - - 0.0
21/01:20am 22.7 25.5 19.7 83 1.9 SSE 4 7 2 4 - - 0.0
21/01:10am 22.8 25.6 19.7 83 2.0 SSE 4 7 2 4 - - 0.0
21/01:00am 22.8 25.6 19.7 83 2.0 SSE 4 4 2 2 - - 0.0
21/12:50am 22.8 25.6 19.7 83 2.0 SSE 4 7 2 4 - - 0.0
21/12:40am 22.9 25.7 19.7 82 2.1 SE 4 7 2 4 - - 0.0
21/12:30am 22.9 25.7 19.6 81 2.1 S 4 7 2 4 - - 0.0
21/12:20am 22.9 26.4 19.6 81 2.1 CALM 0 4 0 2 - - 0.0
21/12:10am 22.9 26.4 19.6 81 2.1 CALM 0 4 0 2 - - 0.0
21/12:00am 22.9 25.6 19.5 81 2.2 SSE 4 7 2 4 - - 0.0
 
Date/Time
EDT
Temp
°C
App
Temp
°C
Dew
Point
°C
Rel
Hum
%
Delta-T
°C
Wind Press
QNH
hPa
Press
MSL
hPa
Rain since
9am
mm
Dir  Spd
km/h
Gust
km/h
Spd
kts
Gust
kts
20/11:50pm 22.9 25.6 19.5 81 2.2 SSE 4 7 2 4 - - 0.0
20/11:40pm 23.0 25.8 19.7 82 2.1 SE 4 4 2 2 - - 0.0
20/11:30pm 23.0 26.5 19.6 81 2.2 CALM 0 4 0 2 - - 0.0
20/11:20pm 23.1 25.9 19.6 80 2.2 ENE 4 4 2 2 - - 0.0
20/11:10pm 23.1 25.9 19.7 81 2.2 NE 4 4 2 2 - - 0.0
20/11:00pm 23.2 26.0 19.6 80 2.3 ENE 4 4 2 2 - - 0.0
20/10:50pm 23.2 25.9 19.5 80 2.4 SSE 4 7 2 4 - - 0.0
20/10:40pm 23.2 25.3 19.4 79 2.4 SE 7 11 4 6 - - 0.0
20/10:30pm 23.3 26.0 19.4 79 2.5 E 4 4 2 2 - - 0.0
20/10:20pm 23.3 26.0 19.4 79 2.5 E 4 7 2 4 - - 0.0
20/10:10pm 23.3 26.0 19.4 79 2.5 E 4 7 2 4 - - 0.0
20/10:00pm 23.4 26.1 19.4 78 2.6 SE 4 7 2 4 - - 0.0
20/09:50pm 23.4 26.0 19.3 78 2.6 SE 4 7 2 4 - - 0.0
20/09:40pm 23.4 26.0 19.3 78 2.6 SE 4 7 2 4 - - 0.0
20/09:30pm 23.4 25.5 19.3 78 2.6 SE 7 15 4 8 - - 0.0
20/09:20pm 23.4 26.0 19.3 78 2.6 S 4 11 2 6 - - 0.0
20/09:10pm 23.5 26.1 19.3 77 2.7 SSE 4 7 2 4 - - 0.0
20/09:00pm 23.5 25.6 19.3 77 2.7 SSE 7 11 4 6 - - 0.0
20/08:50pm 23.6 25.7 19.3 77 2.8 SSE 7 11 4 6 - - 0.0
20/08:40pm 23.6 26.2 19.3 77 2.8 SE 4 7 2 4 - - 0.0
20/08:30pm 23.7 25.8 19.3 76 2.8 SE 7 11 4 6 - - 0.0
20/08:20pm 23.7 25.8 19.3 76 2.8 S 7 11 4 6 - - 0.0
20/08:00pm 23.8 25.8 19.2 75 2.9 E 7 7 4 4 - - 0.0
20/07:50pm 23.8 25.8 19.2 75 2.9 SSE 7 15 4 8 - - 0.0
20/07:40pm 23.9 25.9 19.2 75 3.0 SE 7 11 4 6 - - 0.0
20/07:30pm 23.9 25.9 19.2 75 3.0 SE 7 11 4 6 - - 0.0
20/07:20pm 24.0 26.0 19.2 74 3.1 SE 7 11 4 6 - - 0.0
20/07:10pm 24.2 26.2 19.2 73 3.2 SE 7 7 4 4 - - 0.0
20/07:00pm 24.2 26.2 19.1 73 3.3 ESE 7 7 4 4 - - 0.0
20/06:50pm 24.3 26.3 19.1 73 3.3 SE 7 15 4 8 - - 0.0
20/06:40pm 24.3 26.2 19.0 72 3.4 SE 7 11 4 6 - - 0.0
20/06:30pm 24.4 25.5 18.9 71 3.5 SE 11 15 6 8 - - 0.0
20/06:20pm 24.5 25.5 18.7 70 3.7 SSE 11 15 6 8 - - 0.0
20/06:10pm 24.6 26.3 18.6 69 3.8 SSE 7 11 4 6 - - 0.0
20/06:00pm 24.7 26.4 18.5 68 3.9 SSE 7 11 4 6 - - 0.0
20/05:50pm 24.8 26.5 18.4 67 4.1 SSE 7 11 4 6 - - 0.0
20/05:40pm 24.8 26.5 18.5 68 4.0 ESE 7 15 4 8 - - 0.0
20/05:30pm 24.8 25.7 18.4 67 4.1 S 11 15 6 8 - - 0.0
20/05:20pm 24.9 25.8 18.4 67 4.1 SE 11 15 6 8 - - 0.0
20/05:10pm 24.9 25.8 18.4 67 4.1 ESE 11 15 6 8 - - 0.0
20/05:00pm 25.0 25.2 18.5 67 4.1 SE 15 22 8 12 - - 0.0
20/04:50pm 25.4 25.5 18.4 65 4.4 ESE 15 19 8 10 - - 0.0
20/04:40pm 25.5 25.4 17.9 63 4.8 ESE 15 15 8 8 - - 0.0
20/04:30pm 25.5 25.3 17.7 62 4.9 SE 15 19 8 10 - - 0.0
20/04:20pm 25.5 25.3 17.7 62 4.9 SE 15 22 8 12 - - 0.0
20/04:10pm 25.7 25.5 17.7 61 5.0 SE 15 19 8 10 - - 0.0
20/04:00pm 25.7 26.3 17.7 61 5.0 ESE 11 15 6 8 - - 0.0
20/03:50pm 25.7 25.5 17.6 61 5.1 ESE 15 19 8 10 - - 0.0
20/03:40pm 25.9 25.7 17.7 60 5.2 ESE 15 19 8 10 - - 0.0
20/03:30pm 26.0 25.8 17.7 60 5.2 ESE 15 22 8 12 - - 0.0
20/03:20pm 26.3 26.0 17.4 58 5.6 ESE 15 19 8 10 - - 0.0
20/03:10pm 26.5 26.2 17.3 57 5.8 E 15 22 8 12 - - 0.0
20/03:00pm 26.8 26.4 17.1 55 6.1 ESE 15 26 8 14 - - 0.0
20/02:50pm 27.1 27.5 17.2 54 6.2 ESE 11 19 6 10 - - 0.0
20/02:40pm 27.2 26.6 16.6 52 6.6 ESE 15 19 8 10 - - 0.0
20/02:30pm 27.5 26.9 16.7 51 6.7 SE 15 22 8 12 - - 0.0
20/02:20pm 27.9 27.3 16.7 50 7.0 SE 15 26 8 14 - - 0.0
20/02:10pm 28.1 28.2 16.4 49 7.3 ESE 11 15 6 8 - - 0.0
20/02:00pm 28.0 28.0 16.3 49 7.3 ESE 11 15 6 8 - - 0.0
20/01:50pm 28.1 28.2 16.4 49 7.3 E 11 15 6 8 - - 0.0
20/01:40pm 28.2 29.0 16.4 48 7.3 E 7 11 4 6 - - 0.0
20/01:30pm 28.4 29.2 16.3 47 7.5 ENE 7 11 4 6 - - 0.0
20/01:20pm 28.6 29.3 16.1 46 7.7 E 7 11 4 6 - - 0.0
20/01:10pm 28.8 29.3 15.6 44 8.1 ESE 7 11 4 6 - - 0.0
20/01:00pm 29.2 29.6 15.3 42 8.5 E 7 15 4 8 - - 0.0
20/12:50pm 29.6 29.1 14.8 40 9.0 E 11 15 6 8 - - 0.0
20/12:40pm 30.2 29.7 15.0 39 9.3 E 11 15 6 8 - - 0.0
20/12:30pm 31.0 30.9 15.9 40 9.4 ESE 11 15 6 8 - - 0.0
20/12:20pm 31.1 30.9 15.8 39 9.5 SE 11 15 6 8 - - 0.0
20/12:10pm 31.4 31.0 15.1 37 10.1 SSE 11 11 6 6 - - 0.0
20/12:00pm 31.5 32.1 15.9 39 9.7 SE 7 11 4 6 - - 0.0
20/11:50am 31.5 31.7 14.6 36 10.3 SE 7 11 4 6 - - 0.0
20/11:40am 31.5 31.7 14.8 36 10.3 SE 7 11 4 6 - - 0.0
20/11:30am 31.7 31.8 14.5 35 10.5 SSE 7 11 4 6 - - 0.0
20/11:20am 31.9 31.9 14.3 34 10.7 SSE 7 11 4 6 - - 0.0
20/11:10am 32.5 32.1 15.1 35 10.8 SSE 11 11 6 6 - - 0.0
20/11:00am 33.2 32.7 14.9 33 11.3 SSW 11 19 6 10 - - 0.0
20/10:50am 33.1 32.5 14.5 32 11.4 ESE 11 15 6 8 - - 0.0
20/10:40am 33.0 33.3 15.0 33 11.1 NNE 7 11 4 6 - - 0.0
20/10:30am 32.1 32.3 14.6 34 10.7 NE 7 11 4 6 - - 0.0
20/10:20am 31.5 31.5 14.2 35 10.5 NE 7 15 4 8 - - 0.0
20/10:10am 31.3 31.5 14.6 36 10.2 NNE 7 11 4 6 - - 0.0
20/10:00am 30.8 30.8 14.3 36 10.0 E 7 7 4 4 - - 0.0
20/09:50am 30.2 - 14.7 39 9.5 - - - - - - - 0.0
20/09:40am 29.4 - 14.7 40 8.9 - - - - - - - 0.0
20/09:30am 29.1 - 14.6 41 8.8 - - - - - - - 0.0
20/09:20am 28.4 - 14.8 43 8.3 - - - - - - - 0.0
20/09:10am 27.4 - 15.3 47 7.4 - - - - - - - 0.0
20/09:00am 26.6 - 15.6 50 6.7 - - - - - - - 0.0
20/08:50am 25.6 - 15.9 55 5.9 - - - - - - - 0.0
20/08:40am 24.9 - 15.9 57 5.5 - - - - - - - 0.0
20/08:30am 24.0 - 16.2 61 4.8 - - - - - - - 0.0
20/08:20am 22.8 - 16.2 66 4.0 - - - - - - - 0.0
20/08:10am 21.7 - 16.4 72 3.2 - - - - - - - 0.0
20/08:00am 20.6 - 15.6 73 3.0 - - - - - - - 0.0
20/07:50am 19.4 - 14.9 75 2.6 - - - - - - - 0.0
20/07:30am 17.9 - 15.0 83 1.7 - - - - - - - 0.0
20/07:10am 16.7 - 13.9 83 1.6 - - - - - - - 0.0
20/07:00am 16.4 - 13.9 85 1.4 - - - - - - - 0.0
20/06:50am 16.0 - 13.6 86 1.4 - - - - - - - 0.0
20/06:40am 15.8 - 13.4 86 1.3 - - - - - - - 0.0
20/06:30am 15.8 - 13.3 85 1.4 - - - - - - - 0.0
20/06:20am 15.7 - 13.4 86 1.3 - - - - - - - 0.0
20/06:10am 15.6 - 13.3 86 1.3 - - - - - - - 0.0
20/06:00am 15.8 - 13.3 85 1.4 - - - - - - - 0.0
20/05:50am 15.9 - 13.5 86 1.3 - - - - - - - 0.0
20/05:40am 16.0 - 13.4 84 1.5 - - - - - - - 0.0
20/05:30am 16.2 - 13.1 82 1.7 - - - - - - - 0.0
20/05:20am 16.4 - 13.9 85 1.4 - - - - - - - 0.0
20/05:10am 16.3 - 13.7 84 1.5 - - - - - - - 0.0
20/05:00am 16.4 - 13.6 83 1.6 - - - - - - - 0.0
20/04:50am 16.6 - 13.6 82 1.7 - - - - - - - 0.0
20/04:40am 17.0 - 14.3 84 1.5 - - - - - - - 0.0
20/04:30am 17.0 - 14.3 84 1.5 - - - - - - - 0.0
20/04:20am 17.1 - 14.3 83 1.6 - - - - - - - 0.0
20/04:10am 17.3 - 14.1 81 1.8 - - - - - - - 0.0
20/04:00am 17.6 - 14.4 81 1.8 - - - - - - - 0.0
20/03:50am 17.6 - 14.7 83 1.7 - - - - - - - 0.0
20/03:40am 17.6 - 14.4 81 1.8 - - - - - - - 0.0
20/03:30am 17.8 - 14.1 79 2.1 - - - - - - - 0.0
20/03:20am 17.9 - 14.6 81 1.9 - - - - - - - 0.0
20/03:10am 17.8 - 14.3 80 2.0 - - - - - - - 0.0
20/03:00am 17.8 - 14.7 82 1.8 - - - - - - - 0.0
20/02:50am 18.1 - 14.8 81 1.9 - - - - - - - 0.0
20/02:40am 18.2 - 14.5 79 2.1 - - - - - - - 0.0
 
Date/Time
EDT
Temp
°C
App
Temp
°C
Dew
Point
°C
Rel
Hum
%
Delta-T
°C
Wind Press
QNH
hPa
Press
MSL
hPa
Rain since
9am
mm
Dir  Spd
km/h
Gust
km/h
Spd
kts
Gust
kts
19/02:10pm 37.4 - 3.6 12 18.0 - - - - - - - 0.0
19/02:00pm 37.1 - 3.5 12 17.8 - - - - - - - 0.0
19/01:50pm 36.7 - 4.4 13 17.3 - - - - - - - 0.0
19/01:40pm 36.7 - 4.9 14 17.2 - - - - - - - 0.0
19/01:30pm 37.4 - 3.1 12 18.1 - - - - - - - 0.0
19/01:20pm 36.3 - 5.3 14 16.8 - - - - - - - 0.0
19/01:10pm 35.8 - 5.4 15 16.5 - - - - - - - 0.0
19/01:00pm 35.7 - 6.2 16 16.2 - - - - - - - 0.0
19/12:50pm 35.3 - 6.3 16 15.9 - - - - - - - 0.0
19/12:40pm 35.0 - 6.6 17 15.6 - - - - - - - 0.0
19/12:30pm 35.3 - 6.8 17 15.7 - - - - - - - 0.0
19/12:20pm 34.8 - 4.4 15 16.1 - - - - - - - 0.0
19/12:10pm 34.8 - 6.5 17 15.5 - - - - - - - 0.0
19/12:00pm 34.0 - 8.6 21 14.3 - - - - - - - 0.0
19/11:50am 33.6 - 7.9 20 14.3 - - - - - - - 0.0
19/11:40am 33.0 - 9.9 24 13.2 - - - - - - - 0.0
19/11:30am 32.9 - 10.2 24 13.1 - - - - - - - 0.0
19/11:20am 32.1 - 10.3 26 12.5 - - - - - - - 0.0
19/11:10am 31.5 - 10.1 26 12.2 - - - - - - - 0.0
19/11:00am 30.7 - 10.5 28 11.6 - - - - - - - 0.0
19/10:50am 30.4 - 10.6 29 11.3 - - - - - - - 0.0
19/10:40am 30.1 - 11.2 31 10.9 - - - - - - - 0.0
19/10:30am 30.0 - 10.9 30 11.0 - - - - - - - 0.0
19/10:20am 29.3 - 11.2 32 10.4 - - - - - - - 0.0
19/10:10am 28.4 - 11.4 34 9.8 - - - - - - - 0.0
19/10:00am 28.0 - 11.8 36 9.4 - - - - - - - 0.0
19/09:50am 27.1 - 11.6 38 8.9 - - - - - - - 0.0
19/09:40am 26.8 - 12.1 40 8.5 - - - - - - - 0.0
19/09:30am 26.1 - 12.5 42 7.9 - - - - - - - 0.0
19/09:20am 25.8 - 12.5 43 7.7 - - - - - - - 0.0
19/09:10am 25.3 - 12.6 45 7.3 - - - - - - - 0.0
19/09:00am 24.5 - 12.7 47 6.8 - - - - - - - 0.0
19/08:50am 23.9 - 12.6 49 6.5 - - - - - - - 0.0
19/08:40am 22.6 - 13.0 54 5.5 - - - - - - - 0.0
19/08:30am 21.7 - 13.0 57 5.0 - - - - - - - 0.0
19/08:20am 20.8 - 12.8 60 4.5 - - - - - - - 0.0
19/08:10am 19.6 - 13.1 66 3.7 - - - - - - - 0.0
19/08:00am 18.5 - 13.0 70 3.1 - - - - - - - 0.0
19/07:50am 17.4 - 12.9 75 2.5 - - - - - - - 0.0
19/07:40am 16.2 - 12.3 78 2.1 - - - - - - - 0.0
19/07:30am 15.3 - 11.8 79 1.9 - - - - - - - 0.0
19/07:20am 14.4 - 11.3 81 1.7 - - - - - - - 0.0
19/07:10am 13.7 - 10.8 83 1.5 - - - - - - - 0.0
19/07:00am 13.3 - 10.7 84 1.4 - - - - - - - 0.0
19/06:50am 12.9 - 10.6 86 1.2 - - - - - - - 0.0
19/06:40am 12.9 - 10.9 88 1.0 - - - - - - - 0.0
19/06:30am 12.6 - 10.8 89 0.9 - - - - - - - 0.0
19/06:20am 12.4 - 10.6 89 0.9 - - - - - - - 0.0
19/06:10am 12.2 - 10.4 89 0.9 - - - - - - - 0.0
19/05:50am 12.2 - 10.2 87 1.0 - - - - - - - 0.0
19/05:40am 12.4 - 10.5 88 1.0 - - - - - - - 0.0
19/05:30am 12.5 - 10.5 88 1.0 - - - - - - - 0.0
19/05:20am 12.5 - 10.5 88 1.0 - - - - - - - 0.0
19/05:10am 12.4 - 10.4 88 1.0 - - - - - - - 0.0
19/05:00am 12.3 - 10.1 86 1.1 - - - - - - - 0.0
19/04:50am 12.6 - 10.2 85 1.2 - - - - - - - 0.0
19/04:40am 12.8 - 10.8 88 1.0 - - - - - - - 0.0
19/04:30am 12.9 - 10.7 86 1.1 - - - - - - - 0.0
19/04:20am 12.9 - 10.8 87 1.1 - - - - - - - 0.0
19/04:10am 12.9 - 10.8 87 1.1 - - - - - - - 0.0
19/04:00am 12.9 - 10.7 86 1.1 - - - - - - - 0.0
19/03:50am 13.0 - 10.6 85 1.3 - - - - - - - 0.0
19/03:40am 13.3 - 11.0 86 1.2 - - - - - - - 0.0
19/03:30am 13.3 - 10.9 85 1.3 - - - - - - - 0.0
19/03:20am 13.4 - 10.9 85 1.3 - - - - - - - 0.0
19/03:10am 13.6 - 11.0 84 1.4 - - - - - - - 0.0
19/03:00am 13.6 - 11.3 86 1.2 - - - - - - - 0.0
19/02:50am 13.7 - 11.4 86 1.2 - - - - - - - 0.0
19/02:40am 13.9 - 11.6 86 1.2 - - - - - - - 0.0
19/02:30am 13.9 - 11.5 85 1.3 - - - - - - - 0.0
19/02:20am 14.0 - 11.4 84 1.4 - - - - - - - 0.0
19/02:10am 14.3 - 11.9 85 1.3 - - - - - - - 0.0
19/02:00am 14.4 - 11.9 85 1.4 - - - - - - - 0.0
19/01:50am 14.4 - 11.7 84 1.5 - - - - - - - 0.0
19/01:40am 14.7 - 11.8 83 1.6 - - - - - - - 0.0
19/01:30am 14.9 - 12.1 83 1.5 - - - - - - - 0.0
19/01:20am 15.0 - 12.2 83 1.5 - - - - - - - 0.0
19/01:10am 15.0 - 12.2 83 1.5 - - - - - - - 0.0
19/01:00am 15.1 - 12.2 83 1.6 - - - - - - - 0.0
19/12:50am 15.3 - 12.4 83 1.6 - - - - - - - 0.0
19/12:40am 15.4 - 12.4 82 1.6 - - - - - - - 0.0
19/12:30am 15.6 - 12.2 80 1.9 - - - - - - - 0.0
19/12:20am 15.9 - 12.5 80 1.9 - - - - - - - 0.0
19/12:10am 16.0 - 12.5 80 1.9 - - - - - - - 0.0
19/12:00am 16.2 - 12.7 80 1.9 - - - - - - - 0.0
 
Date/Time
EDT
Temp
°C
App
Temp
°C
Dew
Point
°C
Rel
Hum
%
Delta-T
°C
Wind Press
QNH
hPa
Press
MSL
hPa
Rain since
9am
mm
Dir  Spd
km/h
Gust
km/h
Spd
kts
Gust
kts
18/11:50pm 16.4 - 12.4 77 2.2 - - - - - - - 0.0
18/11:40pm 16.8 - 12.8 77 2.2 - - - - - - - 0.0
18/11:30pm 17.0 - 12.8 76 2.3 - - - - - - - 0.0
18/11:20pm 17.1 - 12.8 76 2.4 - - - - - - - 0.0
18/11:10pm 17.4 - 12.8 74 2.6 - - - - - - - 0.0
18/11:00pm 17.7 - 12.8 73 2.7 - - - - - - - 0.0
18/10:50pm 18.0 - 13.1 73 2.8 - - - - - - - 0.0
18/10:40pm 18.3 - 13.2 72 2.9 - - - - - - - 0.0
18/10:30pm 18.6 - 13.1 70 3.1 - - - - - - - 0.0
18/10:20pm 18.9 - 13.2 69 3.2 - - - - - - - 0.0
18/10:10pm 19.2 - 13.3 68 3.4 - - - - - - - 0.0
18/10:00pm 19.5 - 13.4 68 3.5 - - - - - - - 0.0
18/09:50pm 19.6 - 13.6 68 3.4 - - - - - - - 0.0
18/09:40pm 19.8 - 13.5 67 3.6 - - - - - - - 0.0
18/09:30pm 20.0 - 13.3 65 3.8 - - - - - - - 0.0
18/09:20pm 20.1 - 13.3 65 3.9 - - - - - - - 0.0
18/09:10pm 20.2 - 13.2 64 4.0 - - - - - - - 0.0
18/09:00pm 20.4 - 13.2 63 4.1 - - - - - - - 0.0
18/08:50pm 20.4 - 13.1 63 4.2 - - - - - - - 0.0
18/08:40pm 20.6 - 13.1 62 4.3 - - - - - - - 0.0
18/08:30pm 20.8 - 13.0 61 4.4 - - - - - - - 0.0
18/08:20pm 21.0 - 12.9 60 4.6 - - - - - - - 0.0
18/08:10pm 21.2 - 12.8 58 4.8 - - - - - - - 0.0
18/08:00pm 21.4 - 12.7 57 4.9 - - - - - - - 0.0
18/07:50pm 21.7 - 12.7 56 5.1 - - - - - - - 0.0
18/07:40pm 21.9 - 12.6 55 5.3 - - - - - - - 0.0
18/07:30pm 22.2 - 12.5 54 5.5 - - - - - - - 0.0
18/07:20pm 22.4 - 12.4 53 5.7 - - - - - - - 0.0
18/07:10pm 22.7 - 12.4 52 5.9 - - - - - - - 0.0
18/07:00pm 23.0 - 12.6 52 6.0 - - - - - - - 0.0
18/06:50pm 23.3 - 12.5 50 6.2 - - - - - - - 0.0
18/06:40pm 23.5 - 12.4 49 6.3 - - - - - - - 0.0
18/06:30pm 23.8 - 12.4 48 6.5 - - - - - - - 0.0
18/06:20pm 24.0 - 12.5 48 6.6 - - - - - - - 0.0
18/06:10pm 24.3 - 12.5 47 6.8 - - - - - - - 0.0
18/06:00pm 24.6 - 12.3 46 7.1 - - - - - - - 0.0
18/05:50pm 25.0 - 12.3 45 7.3 - - - - - - - 0.0
18/05:40pm 25.3 - 11.8 43 7.7 - - - - - - - 0.0
18/05:30pm 25.6 - 11.6 41 8.0 - - - - - - - 0.0
18/05:20pm 25.6 - 11.9 42 7.8 - - - - - - - 0.0
18/05:10pm 26.0 - 12.0 41 8.0 - - - - - - - 0.0
18/05:00pm 26.4 - 12.3 41 8.2 - - - - - - - 0.0
18/04:50pm 27.0 - 12.2 39 8.6 - - - - - - - 0.0
18/04:40pm 27.6 - 11.5 36 9.2 - - - - - - - 0.0
18/04:30pm 28.2 - 11.4 35 9.7 - - - - - - - 0.0
18/04:20pm 28.3 - 11.3 34 9.8 - - - - - - - 0.0
18/04:10pm 29.0 - 11.2 33 10.2 - - - - - - - 0.0
18/04:00pm 28.8 - 11.0 33 10.2 - - - - - - - 0.0
18/03:50pm 29.2 - 10.6 31 10.6 - - - - - - - 0.0
18/03:40pm 30.0 - 10.8 30 11.0 - - - - - - - 0.0
18/03:30pm 30.4 - 8.1 25 12.3 - - - - - - - 0.0
18/03:20pm 30.0 - 8.3 25 12.0 - - - - - - - 0.0
18/03:10pm 29.6 - 8.1 26 11.8 - - - - - - - 0.0
18/03:00pm 29.4 - 8.3 26 11.6 - - - - - - - 0.0
18/02:50pm 29.2 - 7.9 26 11.6 - - - - - - - 0.0
18/02:40pm 29.4 - 7.8 25 11.8 - - - - - - - 0.0
18/02:30pm 28.4 - 7.9 27 11.1 - - - - - - - 0.0
18/02:20pm 29.0 - 8.7 28 11.2 - - - - - - - 0.0
18/02:10pm 30.2 - 8.1 25 12.1 - - - - - - - 0.0
18/02:00pm 29.5 - 8.4 26 11.6 - - - - - - - 0.0
18/01:50pm 29.3 - 9.1 28 11.2 - - - - - - - 0.0
18/01:40pm 29.3 - 9.4 29 11.1 - - - - - - - 0.0
18/01:30pm 29.2 - 8.9 28 11.2 - - - - - - - 0.0
18/01:20pm 29.6 - 9.1 27 11.4 - - - - - - - 0.0
18/01:10pm 29.0 - 9.1 28 11.1 - - - - - - - 0.0
18/01:00pm 28.4 - 8.9 29 10.8 - - - - - - - 0.0
18/12:50pm 28.5 - 9.1 29 10.7 - - - - - - - 0.0
18/12:40pm 27.7 - 8.9 30 10.3 - - - - - - - 0.0

Other formats

Comma delimited format used in spreadsheet applications
http://www.bom.gov.au/fwo/IDN60801/IDN60801.99793.axf

JavaScript Object Notation format (JSON) in row-major order
http://www.bom.gov.au/fwo/IDN60801/IDN60801.99793.json

Data quality

Most of these data are generated automatically and are frequently updated. Quality checks on data are not normally performed. It is possible for incorrect values to appear. Refer to information at About Latest Weather Observations and please check the disclaimer before using these data.